AirNav   Pilot Hours Calculator
 
 1049 users online  

22NJ Our Lady's Heliport
Mount Holly, New Jersey, USA

GOING TO MOUNT HOLLY?


FAA INFORMATION EFFECTIVE 22 APRIL 2021

Location

FAA Identifier: 22NJ
Lat/Long: 39-58-58.4040N 074-49-42.5890W
39-58.973400N 074-49.709817W
39.9828900,-74.8284969
(estimated)
Elevation: 18 ft. / 5 m (estimated)
Variation: 10W (1985)
Time zone: UTC -4 (UTC -5 during Standard Time)
Zip code: 08060

Heliport Operations

Heliport use: Private use. Permission required prior to landing
Activation date: 06/1981
Control tower: no
ARTCC: NEW YORK CENTER
FSS: MILLVILLE FLIGHT SERVICE STATION
Attendance: MON-FRI 0700-1700
Segmented circle: no

Heliport Communications

WX ASOS at VAY (2.5 nm S): 119.325 (609-267-1176)
WX ASOS at PNE (10 nm NW): 121.15 (215-677-0146)
WX ASOS at TTN (18 nm N): 126.775 (609-538-8690)
WX AWOS-AV at N81 (19 nm S): 122.7

Nearby radio navigation aids

VOR radial/distance  VOR name  Freq  Var
GXUr273/10.8MC GUIRE VORTAC110.6012W
ARDr177/16.6YARDLEY VOR/DME108.2010W
RBVr239/20.2ROBBINSVILLE VORTAC113.8010W
CYNr309/20.8COYLE VORTAC113.4010W
VCNr023/27.5CEDAR LAKE VOR/DME115.2010W
OODr056/30.2WOODSTOWN VORTAC112.8010W
ACYr350/33.7ATLANTIC CITY VORTAC117.1510W
SBJr196/36.2SOLBERG VOR/DME112.9010W
COLr248/36.5COLTS NECK VOR/DME115.4011W
PTWr122/36.5POTTSTOWN VORTAC116.5009W
MXEr093/38.9MODENA VORTAC113.2009W

 
NDB name  Hdg/Dist  Freq  Var  ID
AMBLER124/22.727512WING .. -. --.
LAKEHURST272/23.039611WNEL -. . .-..
RAINBOW034/36.736311WRNB .-. -. -...

Heliport Services

Runway Information

Helipad H1

Dimensions: 100 x 100 ft. / 30 x 30 m
Surface: turf
Traffic pattern: leftleft

Heliport Ownership and Management from official FAA records

Ownership: Publicly-owned
Owner: ROBERT T WINZINGER INC
1704 MARNE HIGHWAY
HAINESPORT, NJ 08036
Phone 609-267-8600
Manager: ROBERT T WINZINGER INC
1704 MARNE HIGHWAY
HAINESPORT, NJ 08036
Phone 609-267-8600

Additional Remarks

FOR CD CTC MC GUIRE APCH AT 609-754-2767.

Instrument Procedures

There are no published instrument procedures at 22NJ.

Some nearby airports with instrument procedures:

KVAY - South Jersey Regional Airport (3 nm S)
N14 - Flying W Airport (3 nm S)
KPNE - Northeast Philadelphia Airport (10 nm NW)
KWRI - McGuire Field (Joint Base Mc Guire Dix Lakehurst) Airport (11 nm E)
19N - Camden County Airport (13 nm SW)
N87 - Trenton-Robbinsville Airport (17 nm NE)
KTTN - Trenton Mercer Airport (18 nm N)
17N - Cross Keys Airport (19 nm SW)
N81 - Hammonton Municipal Airport (19 nm S)
 
Loc | Ops | Rwys | IFR | FBO | Links
Com | Nav | Svcs | Stats | Notes
Area around 22NJ (Our Lady's Heliport)
 
Road maps at: MapQuest Bing Google
 
Aerial photo
No photo
 
Sectional chart

 
Airport distance calculator
Flying to Our Lady's Heliport? Find the distance to fly.

From to 22NJ

Sunrise and sunset
Times for 15-May-2021
 Local
(UTC-4)
 Zulu
(UTC)
Morning civil twilight05:1409:14
Sunrise05:4509:45
Sunset20:0600:06
Evening civil twilight20:3700:37

Current date and time
Zulu (UTC)  15-May-2021 22:05:22
Local (UTC-4)  15-May-2021 18:05:22
 
METAR
KVAY 
3nm S 
ASOS 119.325 609-267-1176
152154Z AUTO VRB04KT 10SM FEW110 23/05 A3020 RMK AO2 SLP226 T02280050
KPNE 
11nm NW 
152154Z 25005KT 10SM SCT110 21/04 A3022 RMK AO2 SLP232 T02110039
KWRI 
11nm E 
152056Z 17006KT 10SM BKN120 19/07 A3020 RMK AO2A SLP227 60005 T01940065 58007 $
KTTN 
18nm N 
ASOS 133.70 609-538-8690
152153Z 27005KT 10SM FEW100 21/04 A3020 RMK AO2 SLP221 T02110044
KPHL 
20nm W 
152154Z 11006KT 10SM FEW100 BKN140 22/06 A3020 RMK AO2 SLP226 T02220061
TAF
KPNE 
11nm NW 
151903Z 1519/1618 17010G18KT P6SM VCSH BKN070 FM152300 19006KT P6SM SCT100 FM160200 VRB03KT P6SM SCT150 FM161500 20005KT P6SM BKN100
KWRI 
11nm E 
151800Z 1518/1624 VRB05KT 9999 VCSH SCT090 QNH3019INS TEMPO 1518/1523 06015G25KT 6000 -TSRA BKN050CB BECMG 1601/1602 VRB06KT 9999 NSW SCT080 SCT250 QNH3020INS TX19/1518Z TN08/1610Z
KTTN 
18nm N 
151720Z 1518/1618 16007KT P6SM VCSH BKN070 FM152300 VRB03KT P6SM SCT100 FM161400 23005KT P6SM BKN100 FM161600 25007KT P6SM BKN080
KPHL 
20nm W 
151843Z 1519/1624 17010G18KT P6SM VCSH BKN070 FM152100 19008KT P6SM SCT080 BKN150 FM152300 20006KT P6SM SCT100 FM160300 VRB03KT P6SM SCT150 FM161500 20005KT P6SM BKN100 FM162000 23008KT P6SM BKN080
NOTAMs
Click for the latest NOTAMs
NOTAMs are issued by the DoD/FAA and will open in a separate window not controlled by AirNav.

 

 
 

Would you like to see your business listed on this page?

 If your business provides an interesting product or service to pilots, flight crews, aircraft, or users of the Our Lady's Heliport, you should consider listing it here.  To start the listing process, click on the button below
 
Add a business
 

Other Pages about Our Lady's Heliport

Update a link
 
Copyright © AirNav, LLC. All rights reserved. Privacy Policy  Contact